Penn, Pennsylvania
Current Conditions -  °F | °C
As of 11:50 AM on Saturday 25 Oct 2014 (Local Time) from KLBE Reporting Station
Broken Clouds Broken Clouds  
Wind Chill: 55°   Ceiling: 9000
Heat Index: 55°   Visibility: 10mi
Dew Point: 46°   Wind: 17mph
Humidity: 72%   Direction: 210°SSW
Pressure: 29.92"   Gusts: NA
Location:  40.33°N, 79.64°W
Report Text: KLBE 251550Z 21015KT 10SM SCT025 SCT040 BKN090 13/08 A2992
Loading
Personal Weather Stations






























Interactive Weather Map
Tropical Storm Tracking
New forecast layout! Learn more

10-Day Weather Forecast

Advertisements
Track Severe Weather on mobile